createdAt,value
2019-01-10T00:09:12.775Z,48.80
2019-01-10T00:19:18.090Z,45.03
2019-01-10T00:29:23.470Z,45.30
2019-01-10T00:39:28.810Z,44.20
2019-01-10T00:49:34.181Z,47.83
2019-01-10T00:59:39.582Z,45.80
2019-01-10T01:09:44.878Z,41.53
2019-01-10T01:19:50.287Z,45.03
2019-01-10T01:29:55.611Z,45.17
2019-01-10T01:40:00.933Z,48.73
2019-01-10T01:50:07.411Z,43.47
2019-01-10T02:00:16.047Z,42.00
2019-01-10T02:10:23.685Z,43.97
2019-01-10T02:20:30.009Z,41.27
2019-01-10T02:30:41.809Z,45.03
2019-01-10T02:40:42.450Z,48.47
2019-01-10T02:50:47.754Z,50.13
2019-01-10T03:00:53.118Z,47.27
2019-01-10T03:10:58.454Z,45.77
2019-01-10T03:21:03.796Z,49.77
2019-01-10T03:31:09.154Z,48.03
2019-01-10T03:41:14.469Z,45.90
2019-01-10T03:51:19.810Z,51.60
2019-01-10T04:01:25.177Z,44.70
2019-01-10T04:11:30.462Z,47.27
2019-01-10T04:21:35.834Z,43.63
2019-01-10T04:31:41.175Z,47.10
2019-01-10T04:41:46.496Z,49.23
2019-01-10T04:51:51.898Z,41.23
2019-01-10T05:01:57.256Z,40.07
2019-01-10T05:12:02.614Z,47.30
2019-01-10T05:22:07.927Z,49.33
2019-01-10T05:32:13.274Z,39.03
2019-01-10T05:42:18.772Z,46.80
2019-01-10T05:52:24.102Z,49.37
2019-01-10T06:02:29.466Z,45.57
2019-01-10T06:12:34.926Z,38.83
2019-01-10T06:22:40.178Z,42.13
2019-01-10T06:32:46.708Z,43.50
2019-01-10T06:42:52.090Z,42.20
2019-01-10T06:52:57.468Z,47.60
2019-01-10T07:03:02.873Z,46.17
2019-01-10T07:13:08.263Z,49.27
2019-01-10T07:23:13.751Z,48.17
2019-01-10T07:33:19.432Z,52.70
2019-01-10T07:43:27.129Z,53.83
2019-01-10T07:53:32.527Z,50.43
2019-01-10T08:03:37.930Z,54.67
2019-01-10T08:13:45.976Z,62.03
2019-01-10T08:23:51.489Z,59.10
2019-01-10T08:33:56.931Z,54.53
2019-01-10T08:44:03.415Z,58.87
2019-01-10T08:54:08.955Z,57.50
2019-01-10T09:04:14.286Z,61.60
2019-01-10T09:14:19.753Z,61.97
2019-01-10T09:24:25.165Z,57.47
2019-01-10T09:34:30.541Z,61.93
2019-01-10T09:44:36.075Z,53.13
2019-01-10T09:54:41.577Z,59.40
2019-01-10T10:04:47.009Z,56.20
2019-01-10T10:14:52.450Z,53.63
2019-01-10T10:24:57.874Z,59.23
2019-01-10T10:35:03.166Z,51.27
2019-01-10T10:45:09.892Z,58.10
2019-01-10T10:55:15.416Z,51.77
2019-01-10T11:05:21.899Z,55.83
2019-01-10T11:15:27.392Z,52.17
2019-01-10T11:25:32.859Z,49.00
2019-01-10T11:35:38.146Z,47.53
2019-01-10T11:45:43.668Z,57.97
2019-01-10T11:55:49.035Z,50.87
2019-01-10T12:05:54.787Z,53.30
2019-01-10T12:16:00.732Z,57.20
2019-01-10T12:26:06.056Z,56.77
2019-01-10T12:36:11.440Z,58.63
2019-01-10T12:46:16.806Z,50.30
2019-01-10T12:56:22.483Z,51.40
2019-01-10T13:06:27.908Z,49.73
2019-01-10T13:16:33.784Z,41.77
2019-01-10T13:26:39.082Z,51.07
2019-01-10T13:36:44.436Z,46.00
2019-01-10T13:46:55.554Z,46.73
2019-01-10T13:56:57.222Z,52.00
2019-01-10T14:07:02.894Z,51.83
2019-01-10T14:17:08.350Z,58.53
2019-01-10T14:27:14.032Z,60.30
2019-01-10T14:37:19.376Z,58.03
2019-01-10T14:47:24.721Z,62.27
2019-01-10T14:57:30.329Z,62.03
2019-01-10T15:07:35.618Z,57.50
2019-01-10T15:17:41.046Z,61.70
2019-01-10T15:27:46.743Z,63.60
2019-01-10T15:37:52.637Z,64.50
2019-01-10T15:47:58.283Z,63.23
2019-01-10T15:58:05.079Z,69.13
2019-01-10T16:08:10.833Z,68.37
2019-01-10T16:18:16.599Z,63.97
2019-01-10T16:28:22.359Z,58.57
2019-01-10T16:38:27.808Z,58.30
2019-01-10T16:48:33.191Z,58.23
2019-01-10T16:58:38.606Z,62.13
2019-01-10T17:08:44.083Z,48.07
2019-01-10T17:18:49.567Z,56.03
2019-01-10T17:28:54.937Z,59.53
2019-01-10T17:39:00.425Z,68.30
2019-01-10T17:49:06.070Z,67.97
2019-01-10T17:59:11.584Z,61.30
2019-01-10T18:09:17.103Z,57.73
2019-01-10T18:19:22.496Z,60.97
2019-01-10T18:29:32.881Z,56.07
2019-01-10T18:39:35.015Z,55.40
2019-01-10T18:49:40.520Z,56.77
2019-01-10T18:59:45.922Z,46.53
2019-01-10T19:09:51.678Z,57.00
2019-01-10T19:19:58.810Z,61.27
2019-01-10T19:30:04.556Z,59.03
2019-01-10T19:40:13.618Z,52.93
2019-01-10T19:50:21.259Z,56.27
2019-01-10T20:00:35.896Z,50.67
2019-01-10T20:10:41.402Z,55.20
2019-01-10T20:20:46.836Z,56.63
2019-01-10T20:30:54.455Z,53.67
2019-01-10T20:40:59.768Z,78.57
2019-01-10T20:51:05.398Z,61.77
2019-01-10T21:01:11.212Z,64.70
2019-01-10T21:11:16.568Z,58.70
2019-01-10T21:21:21.976Z,57.30
2019-01-10T21:31:27.486Z,55.80
2019-01-10T21:41:32.796Z,56.07
2019-01-10T21:51:38.177Z,57.87
2019-01-10T22:01:43.514Z,52.77
2019-01-10T22:11:48.866Z,56.67
2019-01-10T22:21:54.208Z,54.17
2019-01-10T22:31:59.586Z,51.07
2019-01-10T22:42:04.987Z,53.67
2019-01-10T22:52:10.435Z,59.07
2019-01-10T23:02:15.822Z,58.87
2019-01-10T23:12:21.183Z,58.90
2019-01-10T23:22:26.539Z,53.80
2019-01-10T23:32:32.063Z,54.70
2019-01-10T23:42:37.591Z,56.37
2019-01-10T23:52:42.985Z,71.40
